TRA34Z EHAM-LIRP
Flight info
| Callsign | TRA34Z |
|---|---|
| Flight time | N/A |
| Altitude | 37000 |
| Route | EDUPO Z739 MISGO DCT ASBON DCT TUSUK DCT ULNOK L607 ABUKA DCT KRH DCT NATOR DCT TRA DCT RIPUS DCT GERSA DCT SOSON DCT ODINA DCT SRN DCT ROBAS DCT OSBUL Y651 MIVKI |
| Aircraft | B738/M-SDE2E3FGHIJ1RWXYZ/LB1 |
Departure
| Time | 2026-04-18 11:13 |
|---|---|
| Airport | Amsterdam Airport Schiphol (EHAM) |
Arrival
| Time | N/A |
|---|---|
| Airport | Pisa International Airport (LIRP) |
| Time | Latitude | Longitude | Altitude | Speed | Heading |
|---|---|---|---|---|---|
| 2026-04-18 10:20 | 52.30506 | 4.76806 | -2 ft | 0 kts | 314° |
| 2026-04-18 11:06 | 52.30502 | 4.76812 | -2 ft | 4 kts | 314° |
| 2026-04-18 11:06 | 52.30484 | 4.76844 | -2 ft | 4 kts | 314° |
| 2026-04-18 11:06 | 52.30465 | 4.76875 | -2 ft | 4 kts | 312° |
| 2026-04-18 11:06 | 52.30451 | 4.76902 | -2 ft | 4 kts | 295° |
| 2026-04-18 11:07 | 52.30452 | 4.76933 | -2 ft | 3 kts | 231° |
| 2026-04-18 11:07 | 52.30465 | 4.76959 | -2 ft | 4 kts | 212° |
| 2026-04-18 11:07 | 52.30484 | 4.76971 | -2 ft | 4 kts | 185° |
| 2026-04-18 11:07 | 52.30509 | 4.76964 | -2 ft | 4 kts | 154° |
| 2026-04-18 11:08 | 52.30530 | 4.76945 | -2 ft | 1 kts | 148° |
| 2026-04-18 11:10 | 52.30526 | 4.76949 | -2 ft | 2 kts | 148° |
| 2026-04-18 11:10 | 52.30496 | 4.76979 | -2 ft | 8 kts | 148° |
| 2026-04-18 11:10 | 52.30435 | 4.77051 | -2 ft | 13 kts | 127° |
| 2026-04-18 11:11 | 52.30461 | 4.77209 | -2 ft | 18 kts | 55° |
| 2026-04-18 11:11 | 52.30526 | 4.77384 | -2 ft | 16 kts | 58° |
| 2026-04-18 11:11 | 52.30560 | 4.77530 | -2 ft | 14 kts | 109° |
| 2026-04-18 11:11 | 52.30470 | 4.77625 | -2 ft | 14 kts | 153° |
| 2026-04-18 11:12 | 52.30400 | 4.77600 | -3 ft | 16 kts | 237° |
| 2026-04-18 11:12 | 52.30263 | 4.77244 | -5 ft | 71 kts | 238° |
| 2026-04-18 11:12 | 52.29871 | 4.76225 | -4 ft | 137 kts | 238° |
| 2026-04-18 11:12 | 52.29333 | 4.74741 | 424 ft | 157 kts | 240° |
| 2026-04-18 11:13 | 52.28744 | 4.73223 | 1333 ft | 159 kts | 235° |
| 2026-04-18 11:13 | 52.28121 | 4.71659 | 2165 ft | 175 kts | 236° |
| 2026-04-18 11:13 | 52.27402 | 4.69807 | 2544 ft | 209 kts | 235° |
| 2026-04-18 11:13 | 52.26314 | 4.68204 | 3238 ft | 217 kts | 205° |
| 2026-04-18 11:14 | 52.24844 | 4.67755 | 3719 ft | 229 kts | 175° |
| 2026-04-18 11:14 | 52.23408 | 4.68817 | 3989 ft | 232 kts | 139° |
| 2026-04-18 11:14 | 52.22515 | 4.70992 | 4300 ft | 235 kts | 112° |
| 2026-04-18 11:14 | 52.22270 | 4.73610 | 4691 ft | 240 kts | 92° |
| 2026-04-18 11:15 | 52.22342 | 4.76406 | 5019 ft | 261 kts | 88° |
| 2026-04-18 11:15 | 52.22486 | 4.79456 | 5559 ft | 276 kts | 87° |
| 2026-04-18 11:15 | 52.22642 | 4.82596 | 6406 ft | 280 kts | 87° |
| 2026-04-18 11:15 | 52.22795 | 4.85782 | 7229 ft | 284 kts | 88° |
| 2026-04-18 11:16 | 52.22943 | 4.89030 | 7993 ft | 290 kts | 88° |
| 2026-04-18 11:16 | 52.23088 | 4.92337 | 8770 ft | 295 kts | 88° |
| 2026-04-18 11:16 | 52.23230 | 4.95711 | 9544 ft | 301 kts | 88° |
| 2026-04-18 11:16 | 52.23371 | 4.99137 | 10313 ft | 305 kts | 89° |
| 2026-04-18 11:17 | 52.23513 | 5.02686 | 10708 ft | 325 kts | 88° |
| 2026-04-18 11:17 | 52.23663 | 5.06495 | 10909 ft | 348 kts | 88° |
| 2026-04-18 11:17 | 52.23823 | 5.10513 | 11419 ft | 359 kts | 88° |
| 2026-04-18 11:17 | 52.23985 | 5.14611 | 12135 ft | 364 kts | 88° |
| 2026-04-18 11:18 | 52.24145 | 5.18748 | 12894 ft | 368 kts | 88° |
| 2026-04-18 11:18 | 52.24172 | 5.22929 | 13605 ft | 371 kts | 99° |
| 2026-04-18 11:18 | 52.23567 | 5.27009 | 14294 ft | 370 kts | 114° |